Siem Pilot — LCPF — position and weather

sailwx.info

Track history (hours):
 
Tides and Currents Weather Stations Pressure Air Temp Water Temp Dewpoint Dewpoint Depression Visibility Wind Speed Wind Dir Waves Ship Positions

Siem Pilot

Last reported at 2016-May-24 22:34 UTC. Time now 2016-May-24 23:30 UTC.
Position N 33°41' E 013°03'.

Length 88 m; draft 6 m.

Type: Law enforcement. MMSI: 257458000.

Date/timePositionNaut miles runAvg speedWind from/ knotsBaromVisibWave heightAir tempDewpointWater temp
2016-May-24 22:34N 33°41' E 013°03'1312.6
2016-May-24 21:33N 33°31' E 012°54'1212.3
2016-May-24 20:34N 33°21' E 012°45'1212.1
2016-May-24 19:34N 33°12' E 012°37'4 1.3
2016-May-24 16:32N 33°08' E 012°34'32 3.9
2016-May-24 08:20N 33°38' E 012°49'2413.5
2016-May-24 06:33N 33°58' E 013°03'1413.6
2016-May-24 05:33N 34°11' E 013°10'9 9.4
2016-May-24 04:33N 34°20' E 013°12'1 1.2
2016-May-24 03:33N 34°20' E 013°13'3 3.2
2016-May-24 02:33N 34°20' E 013°10'3 3.1
2016-May-24 01:33N 34°20' E 013°06'3 3.0
2016-May-24 00:33N 34°20' E 013°02'3 3.0
2016-May-23 23:33N 34°20' E 012°59'3 2.9
2016-May-23 22:33N 34°20' E 012°55'3 3.0
2016-May-23 21:32N 34°20' E 012°51'3 2.9
2016-May-23 20:33N 34°20' E 012°48'3 2.7
2016-May-23 19:33N 34°20' E 012°45'68 6.7
2016-May-23 09:22N 35°25' E 012°21'6 3.1
2016-May-23 07:30N 35°26' E 012°28'3 3.6
2016-May-23 06:33N 35°26' E 012°32'5 5.1
2016-May-23 05:33N 35°25' E 012°38'1411.6
2016-May-23 04:21N 35°27' E 012°55'1011.7
2016-May-23 03:31N 35°29' E 013°07'1111.7
2016-May-23 02:33N 35°32' E 013°20'1212.0
2016-May-23 01:33N 35°35' E 013°35'1212.0
2016-May-23 00:33N 35°38' E 013°49'1212.0
2016-May-22 23:33N 35°41' E 014°03'1212.1
2016-May-22 22:33N 35°44' E 014°18'1212.3
2016-May-22 21:33N 35°46' E 014°33'9 8.6
2016-May-22 20:33N 35°54' E 014°33'2 2.0
2016-May-22 19:31N 35°53' E 014°30'0 0.0
2016-May-22 08:31N 35°53' E 014°30'0 0.0
2016-May-21 09:22N 35°53' E 014°30'3 0.1
2016-May-20 12:33N 35°54' E 014°34'1111.4
2016-May-20 11:33N 35°57' E 014°47'113 4.7
2016-May-19 11:24N 37°37' E 015°50'1111.6
2016-May-19 10:28N 37°45' E 016°00'  
Track history (hours):
 
Tides and Currents Weather Stations Pressure Air Temp Water Temp Dewpoint Dewpoint Depression Visibility Wind Speed Wind Dir Waves Ship Positions

Siem Pilot

Last reported at 2016-May-24 22:34 UTC. Time now 2016-May-24 23:30 UTC.
Position N 33°41' E 013°03'.

Length 88 m; draft 6 m.

Type: Law enforcement. MMSI: 257458000.

Date/timePositionNaut miles runAvg speedWind from/ knotsBaromVisibWave heightAir tempDewpointWater temp
2016-May-24 22:34N 33°41' E 013°03'1312.6
2016-May-24 21:33N 33°31' E 012°54'1212.3
2016-May-24 20:34N 33°21' E 012°45'1212.1
2016-May-24 19:34N 33°12' E 012°37'4 1.3
2016-May-24 16:32N 33°08' E 012°34'32 3.9
2016-May-24 08:20N 33°38' E 012°49'2413.5
2016-May-24 06:33N 33°58' E 013°03'1413.6
2016-May-24 05:33N 34°11' E 013°10'9 9.4
2016-May-24 04:33N 34°20' E 013°12'1 1.2
2016-May-24 03:33N 34°20' E 013°13'3 3.2
2016-May-24 02:33N 34°20' E 013°10'3 3.1
2016-May-24 01:33N 34°20' E 013°06'3 3.0
2016-May-24 00:33N 34°20' E 013°02'3 3.0
2016-May-23 23:33N 34°20' E 012°59'3 2.9
2016-May-23 22:33N 34°20' E 012°55'3 3.0
2016-May-23 21:32N 34°20' E 012°51'3 2.9
2016-May-23 20:33N 34°20' E 012°48'3 2.7
2016-May-23 19:33N 34°20' E 012°45'68 6.7
2016-May-23 09:22N 35°25' E 012°21'6 3.1
2016-May-23 07:30N 35°26' E 012°28'3 3.6
2016-May-23 06:33N 35°26' E 012°32'5 5.1
2016-May-23 05:33N 35°25' E 012°38'1411.6
2016-May-23 04:21N 35°27' E 012°55'1011.7
2016-May-23 03:31N 35°29' E 013°07'1111.7
2016-May-23 02:33N 35°32' E 013°20'1212.0
2016-May-23 01:33N 35°35' E 013°35'1212.0
2016-May-23 00:33N 35°38' E 013°49'1212.0
2016-May-22 23:33N 35°41' E 014°03'1212.1
2016-May-22 22:33N 35°44' E 014°18'1212.3
2016-May-22 21:33N 35°46' E 014°33'9 8.6
2016-May-22 20:33N 35°54' E 014°33'2 2.0
2016-May-22 19:31N 35°53' E 014°30'0 0.0
2016-May-22 08:31N 35°53' E 014°30'0 0.0
2016-May-21 09:22N 35°53' E 014°30'3 0.1
2016-May-20 12:33N 35°54' E 014°34'1111.4
2016-May-20 11:33N 35°57' E 014°47'113 4.7
2016-May-19 11:24N 37°37' E 015°50'1111.6
2016-May-19 10:28N 37°45' E 016°00'  

Dump ship's entire track history